New Orleans, LA (70145)

3:54 AM CST on February 10, 2016 (GMT -0600)
Bywater | | Change Station
CLOSE
Current Station
Personal Weather Station
Location: New Orleans, LA
Elevation: 3 ft
Nearby Weather Stations

Elev 3 ft 29.96 °N, 90.03 °W | Updated 3 seconds ago

Clear
Clear
45.1 °F
Feels Like 45 °F
N
0.0
Wind Variable Wind from SE
Gusts 3.0 mph

Today
High -- | Low -- °F
--% Chance of Precip.
Yesterday
High -- | Low -- °F
Precip. -- in
Pressure 30.23 in
Visibility 10.0 miles
Clouds Clear
Windchill 45 °F
Dew Point 26 °F
Humidity 46%
Rainfall 0.00 in
Snow Depth Not available.
6:44 AM 5:44 PM
Waxing Crescent, 4% visible
METAR KNEW 100853Z AUTO 33018KT 10SM CLR 08/M03 A3025 RMK AO2 SLP237 T00831028 53008
Pressure 30.23 in
Visibility 10.0 miles
Clouds Clear
Windchill 45 °F
Dew Point 26 °F
Humidity 46%
Rainfall 0.00 in
Snow Depth Not available.
6:44 AM 5:44 PM
Waxing Crescent, 4% visible
METAR KNEW 100853Z AUTO 33018KT 10SM CLR 08/M03 A3025 RMK AO2 SLP237 T00831028 53008

10-Day Weather Forecast

Almanac

Astronomy

Feb. 10, 2016 Rise Set
Actual Time
Civil Twilight
Nautical Twilight
Astronomical Twilight
Moon
Length of Visible Light
Length of Day
Tomorrow will be .
, % of the Moon is Illuminated

Today's Extremes

State Highs State Lows

Community

WunderPhotos

Upload Photos

1,891,826 photos uploaded!

WunderBlog® & News

Nearby

Air Quality

  Air Quality AQ Index Pollutant
Not available.

Snow Depth

Station Depth Elevation

Earthquake Activity

City Distance Mag. Time & Date
Minimum magnitude displayed is 2.5.

Coastal Water Temperatures

Place Temperature

Stations

Nearby Weather Stations

Station Location Temp. Windchill Dew Point Humidity Wind Precip. Elev Updated Type
                   

Watches & Warnings

There are currently no watches in effect.